createdAt,value
2022-08-25T00:00:34.496Z,101303.34
2022-08-25T00:03:06.181Z,101306.47
2022-08-25T00:05:36.436Z,101308.84
2022-08-25T00:08:07.872Z,101305.53
2022-08-25T00:10:40.169Z,101312.19
2022-08-25T00:13:12.546Z,101311.84
2022-08-25T00:15:43.757Z,101303.88
2022-08-25T00:18:19.865Z,101308.44
2022-08-25T00:20:50.729Z,101310.28
2022-08-25T00:23:22.197Z,101311.28
2022-08-25T00:25:58.026Z,101306.66
2022-08-25T00:28:28.477Z,101307.31
2022-08-25T00:30:59.942Z,101301.31
2022-08-25T00:33:34.677Z,101306.47
2022-08-25T00:36:05.044Z,101305.88
2022-08-25T00:38:35.547Z,101304.88
2022-08-25T00:41:08.176Z,101289.03
2022-08-25T00:43:56.036Z,101284.16
2022-08-25T00:46:31.136Z,101301.34
2022-08-25T00:49:41.502Z,101299.97
2022-08-25T00:52:19.816Z,101287.63
2022-08-25T00:54:53.100Z,101308.69
2022-08-25T00:57:34.626Z,101300.59
2022-08-25T01:00:18.399Z,101309.00
2022-08-25T01:02:48.920Z,101311.97
2022-08-25T01:05:20.592Z,101307.22
2022-08-25T01:07:51.993Z,101308.09
2022-08-25T01:10:24.035Z,101305.66
2022-08-25T01:12:58.145Z,101293.81
2022-08-25T01:15:29.603Z,101305.34
2022-08-25T01:18:01.170Z,101311.94
2022-08-25T01:20:33.830Z,101313.09
2022-08-25T01:23:04.981Z,101319.38
2022-08-25T01:25:45.487Z,101320.22
2022-08-25T01:30:45.082Z,101317.03
2022-08-25T01:33:15.216Z,101321.59
2022-08-25T01:35:46.500Z,101312.56
2022-08-25T01:38:17.164Z,101314.34
2022-08-25T01:40:48.246Z,101302.72
2022-08-25T01:43:23.862Z,101297.59
2022-08-25T01:45:54.661Z,101298.91
2022-08-25T01:48:24.714Z,101301.63
2022-08-25T01:50:54.223Z,101306.84
2022-08-25T01:53:25.913Z,101308.19
2022-08-25T01:56:09.794Z,101302.69
2022-08-25T01:58:44.044Z,101295.84
2022-08-25T02:01:22.694Z,101298.44
2022-08-25T02:03:55.282Z,101273.16
2022-08-25T02:06:33.270Z,101260.59
2022-08-25T02:09:08.367Z,101253.84
2022-08-25T02:11:40.879Z,101248.69
2022-08-25T02:14:13.097Z,101236.00
2022-08-25T02:16:47.688Z,101242.34
2022-08-25T02:19:19.713Z,101250.00
2022-08-25T02:21:49.840Z,101255.09
2022-08-25T02:24:20.121Z,101262.25
2022-08-25T02:26:51.907Z,101270.03
2022-08-25T02:29:21.917Z,101265.91
2022-08-25T02:31:52.451Z,101266.47
2022-08-25T02:34:23.520Z,101266.41
2022-08-25T02:36:53.954Z,101275.66
2022-08-25T02:39:23.442Z,101261.66
2022-08-25T02:41:53.296Z,101267.75
2022-08-25T02:44:23.677Z,101265.47
2022-08-25T02:46:53.553Z,101259.66
2022-08-25T02:49:23.981Z,101261.16
2022-08-25T02:51:53.578Z,101259.22
2022-08-25T02:54:24.347Z,101264.69
2022-08-25T02:56:55.126Z,101251.94
2022-08-25T02:59:25.114Z,101255.41
2022-08-25T03:01:55.638Z,101250.94
2022-08-25T03:04:25.880Z,101245.66
2022-08-25T03:06:56.452Z,101248.84
2022-08-25T03:09:27.956Z,101246.50
2022-08-25T03:11:58.454Z,101249.69
2022-08-25T03:14:28.403Z,101249.69
2022-08-25T03:16:59.304Z,101243.00
2022-08-25T03:19:29.317Z,101246.53
2022-08-25T03:22:00.826Z,101250.41
2022-08-25T03:24:30.861Z,101257.16
2022-08-25T03:27:00.930Z,101252.00
2022-08-25T03:29:34.793Z,101266.09
2022-08-25T03:32:05.128Z,101258.88
2022-08-25T03:34:35.642Z,101259.88
2022-08-25T03:37:07.229Z,101260.03
2022-08-25T03:39:37.606Z,101252.22
2022-08-25T03:42:07.161Z,101253.59
2022-08-25T03:44:37.027Z,101262.78
2022-08-25T03:47:07.695Z,101258.59
2022-08-25T03:49:37.739Z,101245.94
2022-08-25T03:52:08.125Z,101245.19
2022-08-25T03:54:37.645Z,101247.81
2022-08-25T03:57:07.559Z,101256.16
2022-08-25T03:59:39.986Z,101246.38
2022-08-25T04:02:10.218Z,101251.88
2022-08-25T04:04:41.867Z,101223.13
2022-08-25T04:07:12.347Z,101255.28
2022-08-25T04:09:42.899Z,101260.44
2022-08-25T04:12:12.993Z,101252.34
2022-08-25T04:14:44.187Z,101247.31
2022-08-25T04:17:14.294Z,101251.19
2022-08-25T04:19:45.130Z,101245.81
2022-08-25T04:22:15.211Z,101246.16
2022-08-25T04:24:46.233Z,101243.38
2022-08-25T04:27:17.655Z,101237.47
2022-08-25T04:29:48.297Z,101230.91
2022-08-25T04:32:18.374Z,101232.34
2022-08-25T04:34:49.784Z,101233.44
2022-08-25T04:37:19.862Z,101234.34
2022-08-25T04:39:49.680Z,101217.81
2022-08-25T04:42:20.409Z,101212.13
2022-08-25T04:44:51.272Z,101231.00
2022-08-25T04:47:21.837Z,101228.59
2022-08-25T04:49:52.006Z,101235.13
2022-08-25T04:52:22.630Z,101229.09
2022-08-25T04:54:52.742Z,101234.78
2022-08-25T04:57:23.374Z,101235.38
2022-08-25T04:59:53.702Z,101213.88
2022-08-25T05:02:26.666Z,101220.38
2022-08-25T05:04:57.180Z,101209.91
2022-08-25T05:07:27.810Z,101219.78
2022-08-25T05:09:57.683Z,101214.03
2022-08-25T05:12:28.248Z,101218.59
2022-08-25T05:15:18.955Z,101213.00
2022-08-25T05:17:51.635Z,101205.47
2022-08-25T05:20:26.501Z,101208.53
2022-08-25T05:22:57.066Z,101200.16
2022-08-25T05:25:27.149Z,101196.09
2022-08-25T05:27:58.870Z,101205.41
2022-08-25T05:30:28.989Z,101203.78
2022-08-25T05:32:59.547Z,101199.22
2022-08-25T05:35:29.621Z,101199.19
2022-08-25T05:38:00.179Z,101209.28
2022-08-25T05:40:30.331Z,101191.06
2022-08-25T05:43:01.054Z,101202.25
2022-08-25T05:45:31.200Z,101201.47
2022-08-25T05:48:02.178Z,101195.59
2022-08-25T05:50:32.325Z,101189.50
2022-08-25T05:53:03.629Z,101189.72
2022-08-25T05:55:33.651Z,101191.03
2022-08-25T05:58:04.515Z,101189.84
2022-08-25T06:00:34.641Z,101194.59
2022-08-25T06:03:05.361Z,101187.16
2022-08-25T06:05:35.922Z,101171.97
2022-08-25T06:08:06.794Z,101168.09
2022-08-25T06:10:37.242Z,101165.94
2022-08-25T06:13:07.771Z,101168.28
2022-08-25T06:15:37.755Z,101156.72
2022-08-25T06:18:08.576Z,101158.25
2022-08-25T06:20:38.710Z,101161.84
2022-08-25T06:23:08.578Z,101156.72
2022-08-25T06:25:39.158Z,101158.72
2022-08-25T06:28:08.859Z,101153.16
2022-08-25T06:30:40.739Z,101135.50
2022-08-25T06:33:11.398Z,101152.00
2022-08-25T06:35:44.892Z,101155.63
2022-08-25T06:38:15.971Z,101159.56
2022-08-25T06:40:49.330Z,101147.03
2022-08-25T06:43:21.940Z,101144.25
2022-08-25T06:45:52.004Z,101143.03
2022-08-25T06:48:22.588Z,101136.03
2022-08-25T06:50:55.678Z,101149.06
2022-08-25T06:53:26.244Z,101133.44
2022-08-25T06:56:06.327Z,101142.94
2022-08-25T06:58:37.382Z,101137.03
2022-08-25T07:01:20.045Z,101142.94
2022-08-25T07:03:52.710Z,101134.44
2022-08-25T07:06:26.550Z,101129.84
2022-08-25T07:08:58.019Z,101125.72
2022-08-25T07:11:28.321Z,101126.72
2022-08-25T07:13:59.017Z,101135.31
2022-08-25T07:16:29.798Z,101136.50
2022-08-25T07:19:03.128Z,101131.84
2022-08-25T07:21:35.612Z,101109.56
2022-08-25T07:24:11.603Z,101128.91
2022-08-25T07:26:44.490Z,101106.25
2022-08-25T07:29:19.288Z,101113.69
2022-08-25T07:31:52.132Z,101113.91
2022-08-25T07:34:40.756Z,101114.13
2022-08-25T07:37:23.804Z,101132.19
2022-08-25T07:40:05.880Z,101135.31
2022-08-25T07:42:36.131Z,101135.59
2022-08-25T07:45:09.404Z,101143.34
2022-08-25T07:47:40.619Z,101136.94
2022-08-25T07:50:13.624Z,101147.31
2022-08-25T07:52:44.789Z,101154.50
2022-08-25T07:55:25.632Z,101164.13
2022-08-25T07:57:57.573Z,101150.31
2022-08-25T08:00:31.114Z,101155.25
2022-08-25T08:03:03.714Z,101157.75
2022-08-25T08:05:35.608Z,101154.06
2022-08-25T08:08:07.407Z,101154.19
2022-08-25T08:11:02.725Z,101164.06
2022-08-25T08:13:31.889Z,101162.34
2022-08-25T08:16:02.985Z,101168.03
2022-08-25T08:18:35.968Z,101173.69
2022-08-25T08:21:06.911Z,101177.22
2022-08-25T08:23:38.850Z,101183.84
2022-08-25T08:26:08.803Z,101179.59
2022-08-25T08:28:39.856Z,101177.41
2022-08-25T08:31:10.590Z,101183.84
2022-08-25T08:33:41.455Z,101173.72
2022-08-25T08:36:13.710Z,101192.75
2022-08-25T08:38:46.554Z,101175.63
2022-08-25T08:42:11.341Z,101200.72
2022-08-25T08:44:49.079Z,101198.38
2022-08-25T08:47:34.483Z,101194.41
2022-08-25T08:50:28.052Z,101199.59
2022-08-25T08:53:15.084Z,101210.53
2022-08-25T08:55:53.708Z,101181.66
2022-08-25T08:58:26.441Z,101214.88
2022-08-25T09:01:02.982Z,101222.31
2022-08-25T09:03:41.147Z,101209.34
2022-08-25T09:06:26.606Z,101224.28
2022-08-25T09:09:00.621Z,101217.31
2022-08-25T09:11:43.253Z,101231.31
2022-08-25T09:14:30.430Z,101229.53
2022-08-25T09:17:07.278Z,101245.41
2022-08-25T09:20:18.341Z,101242.50
2022-08-25T09:22:54.370Z,101252.97
2022-08-25T09:25:53.109Z,101248.91
2022-08-25T09:28:44.523Z,101248.81
2022-08-25T09:31:41.077Z,101257.53
2022-08-25T09:34:20.290Z,101256.44
2022-08-25T09:36:53.988Z,101265.22
2022-08-25T09:39:24.980Z,101281.81
2022-08-25T09:41:59.474Z,101279.88
2022-08-25T09:44:34.752Z,101270.59
2022-08-25T09:47:16.274Z,101279.22
2022-08-25T09:50:04.621Z,101285.75
2022-08-25T09:52:45.446Z,101278.19
2022-08-25T09:55:15.900Z,101283.88
2022-08-25T09:57:47.006Z,101282.69
2022-08-25T10:00:25.440Z,101293.97
2022-08-25T10:03:13.902Z,101288.03
2022-08-25T10:06:00.486Z,101295.13
2022-08-25T10:08:32.533Z,101295.03
2022-08-25T10:11:08.718Z,101304.66
2022-08-25T10:13:52.802Z,101309.84
2022-08-25T10:16:35.666Z,101307.25
2022-08-25T10:19:14.479Z,101309.09
2022-08-25T10:21:45.361Z,101311.88
2022-08-25T10:24:16.059Z,101325.19
2022-08-25T10:27:14.218Z,101321.38
2022-08-25T10:29:53.987Z,101330.34
2022-08-25T10:33:19.447Z,101322.09
2022-08-25T10:35:55.622Z,101333.13
2022-08-25T10:38:36.414Z,101345.22
2022-08-25T10:41:32.092Z,101347.00
2022-08-25T10:44:08.598Z,101343.84
2022-08-25T10:46:49.062Z,101356.69
2022-08-25T10:49:31.055Z,101350.09
2022-08-25T10:52:12.323Z,101360.06
2022-08-25T10:54:51.816Z,101360.06
2022-08-25T10:57:40.950Z,101373.75
2022-08-25T11:00:20.032Z,101374.47
2022-08-25T11:03:17.459Z,101380.00
2022-08-25T11:06:03.230Z,101383.47
2022-08-25T11:08:43.611Z,101384.56
2022-08-25T11:11:25.684Z,101386.28
2022-08-25T11:14:05.680Z,101386.72
2022-08-25T11:17:08.604Z,101396.00
2022-08-25T11:19:43.988Z,101402.00
2022-08-25T11:22:23.267Z,101405.06
2022-08-25T11:25:26.760Z,101407.47
2022-08-25T11:28:09.942Z,101411.06
2022-08-25T11:30:41.845Z,101408.75
2022-08-25T11:33:21.650Z,101411.41
2022-08-25T11:36:01.279Z,101421.50
2022-08-25T11:38:44.871Z,101416.31
2022-08-25T11:41:27.248Z,101420.06
2022-08-25T11:44:12.763Z,101425.19
2022-08-25T11:46:53.066Z,101421.53
2022-08-25T11:49:44.630Z,101429.09
2022-08-25T11:52:37.755Z,101431.22
2022-08-25T11:55:23.142Z,101435.50
2022-08-25T11:58:14.582Z,101436.97
2022-08-25T12:00:47.521Z,101436.13
2022-08-25T12:03:38.752Z,101439.50
2022-08-25T12:06:19.674Z,101442.31
2022-08-25T12:09:01.695Z,101438.59
2022-08-25T12:11:44.118Z,101438.59
2022-08-25T12:14:27.974Z,101437.59
2022-08-25T12:17:01.511Z,101444.72
2022-08-25T12:19:37.975Z,101442.06
2022-08-25T12:22:11.945Z,101441.88
2022-08-25T12:24:57.352Z,101437.09
2022-08-25T12:27:38.263Z,101439.88
2022-08-25T12:30:20.782Z,101434.34
2022-08-25T12:33:07.115Z,101447.47
2022-08-25T12:35:51.552Z,101439.06
2022-08-25T12:38:42.497Z,101445.19
2022-08-25T12:41:15.762Z,101440.97
2022-08-25T12:43:51.184Z,101435.38
2022-08-25T12:46:28.615Z,101433.31
2022-08-25T12:49:25.146Z,101422.44
2022-08-25T12:52:02.099Z,101414.91
2022-08-25T12:54:38.533Z,101417.75
2022-08-25T12:57:40.793Z,101423.88
2022-08-25T13:00:22.572Z,101424.97
2022-08-25T13:03:13.662Z,101408.50
2022-08-25T13:05:53.979Z,101414.88
2022-08-25T13:08:48.539Z,101411.50
2022-08-25T13:11:48.162Z,101416.34
2022-08-25T13:14:26.861Z,101415.34
2022-08-25T13:17:02.008Z,101420.69
2022-08-25T13:19:35.230Z,101415.63
2022-08-25T13:22:16.714Z,101419.44
2022-08-25T13:24:51.665Z,101401.03
2022-08-25T13:27:28.837Z,101402.88
2022-08-25T13:30:03.941Z,101408.78
2022-08-25T13:32:40.127Z,101395.22
2022-08-25T13:35:32.450Z,101399.75
2022-08-25T13:38:17.320Z,101403.78
2022-08-25T13:40:47.964Z,101381.22
2022-08-25T13:43:27.362Z,101389.22
2022-08-25T13:45:58.121Z,101394.50
2022-08-25T13:48:39.440Z,101394.75
2022-08-25T13:51:21.428Z,101383.03
2022-08-25T13:54:01.478Z,101387.75
2022-08-25T13:56:41.025Z,101384.03
2022-08-25T13:59:28.861Z,101381.88
2022-08-25T14:02:03.652Z,101381.22
2022-08-25T14:04:51.764Z,101379.13
2022-08-25T14:07:23.523Z,101369.38
2022-08-25T14:10:38.614Z,101358.19
2022-08-25T14:13:18.894Z,101364.16
2022-08-25T14:15:49.715Z,101351.69
2022-08-25T14:18:33.666Z,101354.69
2022-08-25T14:21:12.565Z,101349.38
2022-08-25T14:23:43.866Z,101347.50
2022-08-25T14:26:14.537Z,101348.41
2022-08-25T14:28:44.843Z,101343.63
2022-08-25T14:31:20.263Z,101329.25
2022-08-25T14:33:58.167Z,101330.19
2022-08-25T14:36:32.183Z,101321.63
2022-08-25T14:39:08.841Z,101327.50
2022-08-25T14:41:45.292Z,101314.50
2022-08-25T14:44:23.681Z,101304.47
2022-08-25T14:46:59.059Z,101294.44
2022-08-25T14:49:35.346Z,101286.88
2022-08-25T14:52:15.681Z,101294.72
2022-08-25T14:54:48.189Z,101289.34
2022-08-25T14:57:18.874Z,101292.03
2022-08-25T14:59:49.710Z,101280.22
2022-08-25T15:02:30.571Z,101281.69
2022-08-25T15:05:06.982Z,101283.22
2022-08-25T15:07:56.085Z,101269.72
2022-08-25T15:10:26.353Z,101274.47
2022-08-25T15:12:56.966Z,101272.03
2022-08-25T15:15:29.869Z,101266.25
2022-08-25T15:18:01.715Z,101268.47
2022-08-25T15:20:31.919Z,101253.16
2022-08-25T15:23:02.722Z,101248.31
2022-08-25T15:25:33.195Z,101250.16
2022-08-25T15:28:10.298Z,101242.25
2022-08-25T15:30:44.510Z,101213.84
2022-08-25T15:33:16.827Z,101228.06
2022-08-25T15:35:48.031Z,101225.06
2022-08-25T15:38:21.759Z,101224.97
2022-08-25T15:40:52.246Z,101216.38
2022-08-25T15:43:23.690Z,101214.00
2022-08-25T15:45:56.114Z,101202.59
2022-08-25T15:48:26.751Z,101205.97
2022-08-25T15:50:59.874Z,101199.03
2022-08-25T15:53:31.058Z,101198.88
2022-08-25T15:56:05.688Z,101195.13
2022-08-25T15:58:37.761Z,101168.75
2022-08-25T16:01:23.225Z,101174.94
2022-08-25T16:03:55.126Z,101183.88
2022-08-25T16:06:27.236Z,101173.72
2022-08-25T16:08:57.903Z,101169.88
2022-08-25T16:11:32.510Z,101175.28
2022-08-25T16:14:03.571Z,101160.69
2022-08-25T16:16:34.834Z,101161.44
2022-08-25T16:19:09.958Z,101158.66
2022-08-25T16:21:47.477Z,101148.25
2022-08-25T16:24:18.761Z,101142.38
2022-08-25T16:26:51.654Z,101138.97
2022-08-25T16:29:23.054Z,101139.38
2022-08-25T16:31:55.206Z,101136.59
2022-08-25T16:34:28.533Z,101122.91
2022-08-25T16:37:01.230Z,101123.81
2022-08-25T16:39:31.984Z,101121.69
2022-08-25T16:42:02.395Z,101114.75
2022-08-25T16:44:32.942Z,101124.31
2022-08-25T16:47:03.352Z,101126.13
2022-08-25T16:49:33.914Z,101122.31
2022-08-25T16:52:24.421Z,101111.88
2022-08-25T16:55:14.779Z,101108.94
2022-08-25T16:57:53.276Z,101107.50
2022-08-25T17:00:26.576Z,101114.41
2022-08-25T17:03:00.555Z,101104.03
2022-08-25T17:05:32.263Z,101101.53
2022-08-25T17:08:21.711Z,101098.38
2022-08-25T17:10:52.355Z,101102.69
2022-08-25T17:13:22.817Z,101090.91
2022-08-25T17:15:53.504Z,101090.66
2022-08-25T17:18:24.022Z,101091.69
2022-08-25T17:21:07.193Z,101093.94
2022-08-25T17:23:40.125Z,101099.25
2022-08-25T17:26:14.801Z,101087.66
2022-08-25T17:28:45.718Z,101084.66
2022-08-25T17:31:16.891Z,101081.97
2022-08-25T17:33:48.195Z,101072.34
2022-08-25T17:36:19.710Z,101076.06
2022-08-25T17:38:57.894Z,101079.50
2022-08-25T17:41:28.761Z,101066.75
2022-08-25T17:44:00.469Z,101072.94
2022-08-25T17:46:31.428Z,101065.22
2022-08-25T17:49:01.836Z,101067.09
2022-08-25T17:51:35.161Z,101077.59
2022-08-25T17:54:05.577Z,101059.59
2022-08-25T17:56:36.319Z,101062.28
2022-08-25T17:59:06.644Z,101066.66
2022-08-25T18:01:40.873Z,101064.41
2022-08-25T18:04:16.988Z,101071.16
2022-08-25T18:06:49.594Z,101060.38
2022-08-25T18:09:20.223Z,101067.59
2022-08-25T18:11:51.570Z,101064.97
2022-08-25T18:14:25.403Z,101063.03
2022-08-25T18:16:56.541Z,101060.09
2022-08-25T18:19:26.775Z,101053.06
2022-08-25T18:21:57.362Z,101058.31
2022-08-25T18:24:27.963Z,101059.59
2022-08-25T18:26:58.525Z,101049.13
2022-08-25T18:29:29.666Z,101060.06
2022-08-25T18:32:00.597Z,101062.50
2022-08-25T18:34:30.983Z,101060.25
2022-08-25T18:37:21.454Z,101058.59
2022-08-25T18:40:11.874Z,101055.16
2022-08-25T18:42:42.567Z,101061.50
2022-08-25T18:45:13.174Z,101068.31
2022-08-25T18:47:43.745Z,101067.13
2022-08-25T18:50:13.925Z,101066.88
2022-08-25T18:52:45.205Z,101075.53
2022-08-25T18:55:15.867Z,101069.75
2022-08-25T18:57:47.488Z,101072.41
2022-08-25T19:00:23.712Z,101078.22
2022-08-25T19:02:57.517Z,101074.09
2022-08-25T19:05:36.886Z,101070.81
2022-08-25T19:08:10.575Z,101068.06
2022-08-25T19:10:44.067Z,101074.63
2022-08-25T19:13:14.674Z,101076.72
2022-08-25T19:15:46.187Z,101075.03
2022-08-25T19:18:17.225Z,101079.00
2022-08-25T19:20:47.675Z,101086.19
2022-08-25T19:23:18.566Z,101092.13
2022-08-25T19:25:49.266Z,101084.22
2022-08-25T19:28:20.126Z,101087.28
2022-08-25T19:30:51.021Z,101084.22
2022-08-25T19:33:42.290Z,101091.06
2022-08-25T19:36:13.663Z,101085.50
2022-08-25T19:38:45.561Z,101089.88
2022-08-25T19:41:15.944Z,101088.66
2022-08-25T19:43:54.968Z,101088.28
2022-08-25T19:46:36.676Z,101093.69
2022-08-25T19:49:14.908Z,101098.97
2022-08-25T19:51:50.482Z,101095.31
2022-08-25T19:54:31.958Z,101094.91
2022-08-25T19:57:02.597Z,101098.63
2022-08-25T19:59:42.349Z,101098.25
2022-08-25T20:02:17.744Z,101107.97
2022-08-25T20:04:54.293Z,101109.25
2022-08-25T20:07:28.763Z,101102.44
2022-08-25T20:10:00.296Z,101106.66
2022-08-25T20:12:33.398Z,101114.69
2022-08-25T20:15:06.510Z,101115.47
2022-08-25T20:17:36.905Z,101122.03
2022-08-25T20:20:15.100Z,101128.28
2022-08-25T20:22:45.271Z,101127.06
2022-08-25T20:25:23.393Z,101134.47
2022-08-25T20:27:56.564Z,101141.00
2022-08-25T20:30:31.085Z,101132.28
2022-08-25T20:33:01.452Z,101126.25
2022-08-25T20:35:32.293Z,101133.63
2022-08-25T20:38:02.626Z,101131.47
2022-08-25T20:40:33.813Z,101136.47
2022-08-25T20:43:04.487Z,101134.81
2022-08-25T20:45:35.541Z,101127.09
2022-08-25T20:48:06.156Z,101131.91
2022-08-25T20:50:40.835Z,101124.66
2022-08-25T20:53:13.517Z,101129.31
2022-08-25T20:55:45.059Z,101133.50
2022-08-25T20:58:16.051Z,101130.34
2022-08-25T21:00:47.229Z,101130.88
2022-08-25T21:03:17.439Z,101135.38
2022-08-25T21:05:54.091Z,101137.63
2022-08-25T21:08:25.477Z,101135.34
2022-08-25T21:10:58.773Z,101141.94
2022-08-25T21:13:29.214Z,101136.22
2022-08-25T21:16:06.354Z,101142.16
2022-08-25T21:18:37.791Z,101141.41
2022-08-25T21:21:16.641Z,101142.22
2022-08-25T21:23:53.124Z,101150.25
2022-08-25T21:26:26.497Z,101152.00
2022-08-25T21:29:02.984Z,101154.88
2022-08-25T21:31:35.116Z,101165.41
2022-08-25T21:34:05.797Z,101144.63
2022-08-25T21:36:36.392Z,101160.00
2022-08-25T21:39:06.497Z,101155.97
2022-08-25T21:41:40.222Z,101149.22
2022-08-25T21:44:11.745Z,101150.25
2022-08-25T21:46:51.216Z,101128.69
2022-08-25T21:49:25.834Z,101139.78
2022-08-25T21:52:00.811Z,101140.03
2022-08-25T21:54:32.193Z,101136.38
2022-08-25T21:57:06.539Z,101134.84
2022-08-25T21:59:39.334Z,101136.88
2022-08-25T22:02:12.847Z,101149.66
2022-08-25T22:04:43.943Z,101158.69
2022-08-25T22:07:17.815Z,101168.06
2022-08-25T22:09:48.643Z,101178.78
2022-08-25T22:12:23.430Z,101169.75
2022-08-25T22:14:55.499Z,101172.94
2022-08-25T22:17:26.069Z,101173.97
2022-08-25T22:19:57.716Z,101178.16
2022-08-25T22:22:27.754Z,101174.31
2022-08-25T22:24:57.578Z,101173.56
2022-08-25T22:27:28.005Z,101171.31
2022-08-25T22:29:59.610Z,101171.88
2022-08-25T22:32:30.582Z,101176.66
2022-08-25T22:35:00.779Z,101177.16
2022-08-25T22:37:32.312Z,101192.69
2022-08-25T22:40:07.336Z,101192.50
2022-08-25T22:42:37.907Z,101194.31
2022-08-25T22:45:08.399Z,101189.38
2022-08-25T22:47:39.319Z,101193.50
2022-08-25T22:50:12.211Z,101209.81
2022-08-25T22:52:44.431Z,101202.41
2022-08-25T22:55:16.281Z,101203.81
2022-08-25T22:57:46.871Z,101204.03
2022-08-25T23:00:17.683Z,101213.56
2022-08-25T23:02:54.159Z,101218.44
2022-08-25T23:05:24.487Z,101222.78
2022-08-25T23:07:55.081Z,101225.06
2022-08-25T23:10:26.677Z,101229.78
2022-08-25T23:12:57.348Z,101226.44
2022-08-25T23:15:27.638Z,101223.59
2022-08-25T23:17:58.527Z,101224.22
2022-08-25T23:20:46.649Z,101235.47
2022-08-25T23:23:18.058Z,101238.38
2022-08-25T23:25:48.171Z,101236.00
2022-08-25T23:28:19.138Z,101237.31
2022-08-25T23:30:51.786Z,101236.97
2022-08-25T23:33:29.864Z,101215.78
2022-08-25T23:36:05.916Z,101231.03
2022-08-25T23:38:37.679Z,101232.22
2022-08-25T23:41:11.591Z,101233.88
2022-08-25T23:43:43.393Z,101242.81
2022-08-25T23:46:18.374Z,101241.75
2022-08-25T23:48:49.855Z,101240.22
2022-08-25T23:51:25.161Z,101242.03
2022-08-25T23:53:56.987Z,101241.34
2022-08-25T23:56:32.101Z,101241.06
2022-08-25T23:59:04.727Z,101243.25
